Time;durP1;ratioP1;P1;durP2;ratioP2;P2;SDS_P1;SDS_P2;PMS_P1;PMS_P2;Temp;Humidity;BMP_temperature;BMP_pressure;BME280_temperature;BME280_humidity;BME280_pressure;Samples;Min_cycle;Max_cycle;Signal;HPM_P1;HPM_P2
2022/02/23 00:01:20;;;;;;;14.03;3.10;;;9.00;99.90;;;;;;5077874;28;20179;-88
2022/02/23 00:03:48;;;;;;;12.50;3.10;;;9.00;99.90;;;;;;5079811;28;20544;-88
2022/02/23 00:06:14;;;;;;;9.90;3.00;;;9.00;99.90;;;;;;5085183;28;20203;-87
2022/02/23 00:08:41;;;;;;;11.13;3.30;;;9.10;99.90;;;;;;5092885;28;20186;-87
2022/02/23 00:11:11;;;;;;;13.27;3.77;;;9.10;99.90;;;;;;5092851;28;20190;-88
2022/02/23 00:13:38;;;;;;;13.60;3.00;;;9.10;99.90;;;;;;5092810;28;20204;-87
2022/02/23 00:16:05;;;;;;;9.67;2.90;;;9.10;99.90;;;;;;5092837;28;20204;-87
2022/02/23 00:18:34;;;;;;;11.97;3.77;;;9.10;99.90;;;;;;5092868;28;20190;-88
2022/02/23 00:21:01;;;;;;;10.00;2.80;;;9.00;99.90;;;;;;5092834;28;20177;-88
2022/02/23 00:23:26;;;;;;;14.83;3.60;;;9.00;99.90;;;;;;5092897;28;20166;-87
2022/02/23 00:25:53;;;;;;;8.00;3.13;;;9.00;99.90;;;;;;5092649;28;20198;-88
2022/02/23 00:28:22;;;;;;;11.70;3.27;;;8.90;99.90;;;;;;5092702;28;20226;-88
2022/02/23 00:30:47;;;;;;;14.13;4.30;;;8.90;99.90;;;;;;5092638;28;20177;-88
2022/02/23 00:33:15;;;;;;;10.20;3.30;;;9.00;99.90;;;;;;5092634;28;20249;-87
2022/02/23 00:35:43;;;;;;;9.90;3.10;;;8.80;99.90;;;;;;5092340;28;20191;-88
2022/02/23 00:38:09;;;;;;;14.80;3.23;;;8.80;99.90;;;;;;5091612;28;20172;-88
2022/02/23 00:40:36;;;;;;;13.93;3.77;;;8.80;99.90;;;;;;5091618;28;20178;-88
2022/02/23 00:43:06;;;;;;;14.93;3.20;;;8.90;99.90;;;;;;5095596;28;20207;-88
2022/02/23 00:45:33;;;;;;;7.73;3.10;;;8.80;99.90;;;;;;5095453;28;20239;-88
2022/02/23 00:48:02;;;;;;;10.50;3.00;;;8.90;99.90;;;;;;5095517;28;20179;-88
2022/02/23 00:50:29;;;;;;;7.73;3.23;;;8.80;99.90;;;;;;5095155;28;20184;-88
2022/02/23 00:52:55;;;;;;;11.97;3.70;;;8.80;99.90;;;;;;5095478;28;20323;-88
2022/02/23 00:55:21;;;;;;;11.53;3.10;;;8.70;99.90;;;;;;5096379;28;20272;-88
2022/02/23 00:57:52;;;;;;;9.73;3.33;;;8.70;99.90;;;;;;5096759;28;20187;-88
2022/02/23 01:00:24;;;;;;;8.97;3.57;;;8.80;99.90;;;;;;5096478;28;20236;-87
2022/02/23 01:02:51;;;;;;;14.57;3.03;;;8.70;99.90;;;;;;5096179;28;20175;-88
2022/02/23 01:05:16;;;;;;;14.73;3.40;;;8.70;99.90;;;;;;5096316;28;20211;-88
2022/02/23 01:07:44;;;;;;;8.63;2.93;;;8.60;99.90;;;;;;5096246;28;20665;-88
2022/02/23 01:10:11;;;;;;;19.20;4.30;;;8.50;99.90;;;;;;5096225;28;20703;-88
2022/02/23 01:12:39;;;;;;;12.47;3.37;;;8.70;99.90;;;;;;5096280;28;20170;-86
2022/02/23 01:15:08;;;;;;;17.77;3.60;;;8.70;99.90;;;;;;5095961;28;20179;-88
2022/02/23 01:17:38;;;;;;;11.93;3.40;;;8.60;99.90;;;;;;5097298;28;20161;-88
2022/02/23 01:20:04;;;;;;;11.50;2.97;;;8.60;99.90;;;;;;5095982;28;20170;-88
2022/02/23 01:22:33;;;;;;;9.07;2.90;;;8.60;99.90;;;;;;5096087;28;20189;-86
2022/02/23 01:24:59;;;;;;;7.70;2.80;;;8.60;99.90;;;;;;5096793;28;20195;-88
2022/02/23 01:27:25;;;;;;;11.57;2.80;;;8.70;99.90;;;;;;5095931;28;20451;-86
2022/02/23 01:29:52;;;;;;;10.03;2.33;;;8.70;99.90;;;;;;5095840;28;20263;-88
2022/02/23 01:32:18;;;;;;;10.87;2.87;;;8.60;99.90;;;;;;5095365;28;20648;-86
2022/02/23 01:34:44;;;;;;;10.03;2.47;;;8.60;99.90;;;;;;5097029;28;20217;-87
2022/02/23 01:37:12;;;;;;;12.33;2.63;;;8.60;99.90;;;;;;5095668;28;20163;-88
2022/02/23 01:39:38;;;;;;;8.70;2.70;;;8.50;99.90;;;;;;5095764;28;20183;-88
2022/02/23 01:42:04;;;;;;;13.57;2.90;;;8.40;99.90;;;;;;5095417;28;20178;-86
2022/02/23 01:44:29;;;;;;;13.63;3.07;;;8.50;99.90;;;;;;5096224;28;20698;-86
2022/02/23 01:46:58;;;;;;;10.30;3.40;;;8.50;99.90;;;;;;5095541;28;20263;-88
2022/02/23 01:49:30;;;;;;;10.57;2.70;;;8.50;99.90;;;;;;5096455;28;20169;-86
2022/02/23 01:52:05;;;;;;;6.17;2.80;;;8.50;99.90;;;;;;5095164;28;20559;-87
2022/02/23 01:54:32;;;;;;;17.70;3.00;;;8.40;99.90;;;;;;5094894;28;20190;-86
2022/02/23 01:56:59;;;;;;;9.70;2.47;;;8.40;99.90;;;;;;5095434;28;20534;-86
2022/02/23 01:59:27;;;;;;;12.63;3.00;;;8.40;99.90;;;;;;5095431;28;20217;-85
2022/02/23 02:01:54;;;;;;;13.17;2.90;;;8.40;99.90;;;;;;5094963;28;20169;-87
2022/02/23 02:04:23;;;;;;;9.53;2.10;;;8.40;99.90;;;;;;5094987;28;20196;-87
2022/02/23 02:06:49;;;;;;;11.40;2.90;;;8.30;99.90;;;;;;5095016;28;20289;-86
2022/02/23 02:09:19;;;;;;;13.33;2.73;;;8.30;99.90;;;;;;5094907;28;20673;-87
2022/02/23 02:11:44;;;;;;;8.97;2.87;;;8.30;99.90;;;;;;5096004;28;20265;-87
2022/02/23 02:14:11;;;;;;;11.00;2.77;;;8.30;99.90;;;;;;5095027;28;20614;-87
2022/02/23 02:16:38;;;;;;;9.70;2.67;;;8.30;99.90;;;;;;5094843;28;20264;-87
2022/02/23 02:19:06;;;;;;;6.57;1.93;;;8.30;99.90;;;;;;5095007;28;20282;-87
2022/02/23 02:21:53;;;;;;;10.47;2.80;;;8.30;99.90;;;;;;5094759;28;20160;-86
2022/02/23 02:24:21;;;;;;;8.50;2.20;;;8.30;99.90;;;;;;5094612;28;20232;-86
2022/02/23 02:26:50;;;;;;;10.97;2.27;;;8.30;99.90;;;;;;5094916;28;20168;-86
2022/02/23 02:29:18;;;;;;;8.23;3.03;;;8.30;99.90;;;;;;5094754;28;20195;-86
2022/02/23 02:31:48;;;;;;;8.57;2.30;;;8.30;99.90;;;;;;5094609;28;20163;-86
2022/02/23 02:34:15;;;;;;;13.00;3.90;;;8.20;99.90;;;;;;5094750;28;20188;-86
2022/02/23 02:36:42;;;;;;;7.93;3.70;;;8.30;99.90;;;;;;5094628;28;20180;-86
2022/02/23 02:39:09;;;;;;;14.60;2.70;;;8.30;99.90;;;;;;5094538;28;20266;-86
2022/02/23 02:41:36;;;;;;;15.07;2.97;;;8.10;99.90;;;;;;5095266;28;20175;-86
2022/02/23 02:44:05;;;;;;;12.20;2.80;;;8.10;99.90;;;;;;5094160;28;20527;-87
2022/02/23 02:46:34;;;;;;;11.30;3.10;;;8.10;99.90;;;;;;5094120;28;20230;-86
2022/02/23 02:49:06;;;;;;;12.37;2.63;;;8.20;99.90;;;;;;5094332;28;20161;-86
2022/02/23 02:51:32;;;;;;;13.50;2.77;;;8.30;99.90;;;;;;5094462;28;20163;-86
2022/02/23 02:53:59;;;;;;;12.60;2.63;;;8.30;99.90;;;;;;5094443;28;20164;-86
2022/02/23 02:56:25;;;;;;;9.47;2.17;;;8.20;99.90;;;;;;5094101;28;20168;-86
2022/02/23 02:58:52;;;;;;;8.43;2.30;;;8.10;99.90;;;;;;5094956;28;20289;-86
2022/02/23 03:01:24;;;;;;;11.90;2.40;;;8.10;99.90;;;;;;5094058;28;20169;-87
2022/02/23 03:03:52;;;;;;;7.87;2.47;;;8.00;99.90;;;;;;5094070;28;20253;-87
2022/02/23 03:06:19;;;;;;;12.53;2.97;;;8.10;99.90;;;;;;5092991;28;20202;-87
2022/02/23 03:08:46;;;;;;;14.17;3.47;;;8.10;99.90;;;;;;5093861;28;20206;-87
2022/02/23 03:11:12;;;;;;;11.37;2.53;;;8.00;99.90;;;;;;5093894;28;20173;-87
2022/02/23 03:13:41;;;;;;;6.33;2.50;;;8.10;99.90;;;;;;5093712;28;20187;-86
2022/02/23 03:16:10;;;;;;;10.33;3.17;;;8.10;99.90;;;;;;5093670;28;20229;-87
2022/02/23 03:18:42;;;;;;;12.93;2.33;;;8.00;99.90;;;;;;5093649;28;20179;-87
2022/02/23 03:21:11;;;;;;;10.43;2.37;;;8.10;99.90;;;;;;5093743;28;20175;-86
2022/02/23 03:23:38;;;;;;;11.87;3.07;;;8.00;99.90;;;;;;5093926;28;20175;-88
2022/02/23 03:26:04;;;;;;;12.33;2.50;;;8.00;99.90;;;;;;5093528;28;20249;-87
2022/02/23 03:28:34;;;;;;;10.93;2.50;;;8.00;99.90;;;;;;5093520;28;20173;-87
2022/02/23 03:31:01;;;;;;;12.80;2.70;;;8.00;99.90;;;;;;5093752;28;20177;-87
2022/02/23 03:33:26;;;;;;;12.10;3.57;;;7.90;99.90;;;;;;5093532;28;20159;-87
2022/02/23 03:35:53;;;;;;;11.63;3.77;;;8.00;99.90;;;;;;5093457;28;20163;-87
2022/02/23 03:38:22;;;;;;;9.20;2.77;;;7.90;99.90;;;;;;5093361;28;20222;-87
2022/02/23 03:40:51;;;;;;;11.30;3.70;;;7.80;99.90;;;;;;5093281;28;20190;-87
2022/02/23 03:43:19;;;;;;;15.43;3.50;;;7.90;99.90;;;;;;5093092;28;20181;-88
2022/02/23 03:45:47;;;;;;;15.57;3.33;;;7.80;99.90;;;;;;5093128;28;20210;-87
2022/02/23 03:48:12;;;;;;;15.03;3.07;;;7.80;99.90;;;;;;5093427;28;20172;-87
2022/02/23 03:50:41;;;;;;;13.47;3.63;;;7.90;99.90;;;;;;5093290;28;20170;-87
2022/02/23 03:53:08;;;;;;;11.23;2.70;;;7.90;99.90;;;;;;5094489;28;20174;-88
2022/02/23 03:55:36;;;;;;;9.47;2.53;;;7.90;99.90;;;;;;5093317;28;20203;-88
2022/02/23 03:58:05;;;;;;;10.83;3.50;;;7.90;99.90;;;;;;5093121;28;20202;-88
2022/02/23 04:00:30;;;;;;;16.87;3.70;;;7.90;99.90;;;;;;5093518;28;20313;-87
2022/02/23 04:02:57;;;;;;;8.87;2.87;;;7.90;99.90;;;;;;5093074;28;20218;-87
2022/02/23 04:05:26;;;;;;;11.63;3.00;;;7.80;99.90;;;;;;5092949;28;20779;-87
2022/02/23 04:07:54;;;;;;;11.37;2.70;;;7.70;99.90;;;;;;5093091;28;20242;-87
2022/02/23 04:10:20;;;;;;;11.43;3.67;;;7.70;99.90;;;;;;5094154;28;20242;-87
2022/02/23 04:12:48;;;;;;;9.87;2.40;;;7.80;99.90;;;;;;5092669;28;20179;-87
2022/02/23 04:15:17;;;;;;;14.47;3.63;;;7.80;99.90;;;;;;5093220;28;20217;-87
2022/02/23 04:17:44;;;;;;;8.20;2.93;;;7.70;99.90;;;;;;5092786;28;20164;-87
2022/02/23 04:20:12;;;;;;;13.80;3.00;;;7.80;99.90;;;;;;5092867;28;20682;-88
2022/02/23 04:22:38;;;;;;;14.73;3.90;;;7.80;99.90;;;;;;5092696;28;20182;-87
2022/02/23 04:25:05;;;;;;;11.60;2.53;;;7.80;99.90;;;;;;5092758;28;20203;-87
2022/02/23 04:27:34;;;;;;;11.63;4.23;;;7.70;99.90;;;;;;5092848;28;20184;-87
2022/02/23 04:30:00;;;;;;;15.77;3.07;;;7.70;99.90;;;;;;5092958;28;20168;-87
2022/02/23 04:32:29;;;;;;;8.07;2.77;;;7.70;99.90;;;;;;5092774;28;20248;-87
2022/02/23 04:34:55;;;;;;;15.60;3.50;;;7.90;99.90;;;;;;5092708;28;20187;-87
2022/02/23 04:37:23;;;;;;;10.10;4.10;;;7.90;99.90;;;;;;5092808;28;20208;-87
2022/02/23 04:39:51;;;;;;;10.07;2.90;;;7.80;99.90;;;;;;5092591;28;20179;-87
2022/02/23 04:42:20;;;;;;;7.10;2.47;;;7.70;99.90;;;;;;5092619;28;20167;-88
2022/02/23 04:44:46;;;;;;;16.23;3.00;;;7.70;99.90;;;;;;5092508;28;20260;-87
2022/02/23 04:47:14;;;;;;;14.77;3.50;;;7.70;99.90;;;;;;5092728;28;20266;-87
2022/02/23 04:49:45;;;;;;;18.37;3.63;;;7.70;99.90;;;;;;5093645;28;20146;-86
2022/02/23 04:52:12;;;;;;;9.00;3.17;;;7.70;99.90;;;;;;5092462;28;20173;-87
2022/02/23 04:54:38;;;;;;;14.03;2.47;;;7.50;99.90;;;;;;5092351;28;20502;-87
2022/02/23 04:57:10;;;;;;;11.57;2.80;;;7.50;99.90;;;;;;5093536;28;20245;-87
2022/02/23 04:59:36;;;;;;;11.50;3.47;;;7.50;99.90;;;;;;5092526;28;20171;-87
2022/02/23 05:02:09;;;;;;;16.30;3.10;;;7.40;99.90;;;;;;5092651;28;20182;-87
2022/02/23 05:04:36;;;;;;;13.73;3.07;;;7.40;99.90;;;;;;5092503;28;20212;-88
2022/02/23 05:07:03;;;;;;;6.67;2.57;;;7.20;99.90;;;;;;5092475;28;20237;-87
2022/02/23 05:09:28;;;;;;;17.77;3.93;;;7.30;99.90;;;;;;5092099;28;20186;-87
2022/02/23 05:11:55;;;;;;;17.87;3.77;;;7.40;99.90;;;;;;5092459;28;20182;-87
2022/02/23 05:14:23;;;;;;;11.17;3.00;;;7.30;99.90;;;;;;5092377;28;20190;-87
2022/02/23 05:16:50;;;;;;;12.47;2.83;;;7.30;99.90;;;;;;5092378;28;20273;-87
2022/02/23 05:19:17;;;;;;;11.33;3.10;;;7.50;99.90;;;;;;5092406;28;20170;-87
2022/02/23 05:21:45;;;;;;;13.27;3.93;;;7.40;99.90;;;;;;5092354;28;20174;-88
2022/02/23 05:24:15;;;;;;;9.17;2.90;;;7.30;99.90;;;;;;5092037;28;20176;-87
2022/02/23 05:26:43;;;;;;;10.60;3.33;;;7.20;99.90;;;;;;5092589;28;20202;-87
2022/02/23 05:29:09;;;;;;;17.40;4.47;;;7.20;99.90;;;;;;5094784;28;20166;-87
2022/02/23 05:31:38;;;;;;;14.97;4.10;;;7.10;99.90;;;;;;5096912;28;20166;-87
2022/02/23 05:34:06;;;;;;;15.97;4.80;;;7.10;99.90;;;;;;5095969;28;20509;-88
2022/02/23 05:36:33;;;;;;;11.53;3.80;;;7.10;99.90;;;;;;5095732;28;20174;-88
2022/02/23 05:38:59;;;;;;;14.97;3.43;;;7.00;99.90;;;;;;5095610;28;20517;-87
2022/02/23 05:41:27;;;;;;;15.20;4.17;;;7.30;99.90;;;;;;5095520;28;20170;-85
2022/02/23 05:43:53;;;;;;;18.37;4.10;;;7.40;99.90;;;;;;5096931;28;20159;-88
2022/02/23 05:46:21;;;;;;;13.03;3.70;;;7.30;99.90;;;;;;5095595;28;20267;-87
2022/02/23 05:48:50;;;;;;;10.60;3.77;;;7.20;99.90;;;;;;5095569;28;20163;-88
2022/02/23 05:51:34;;;;;;;13.50;4.07;;;7.20;99.90;;;;;;5095434;28;20175;-87
2022/02/23 05:54:02;;;;;;;13.17;4.20;;;7.30;99.90;;;;;;5095357;28;20175;-87
2022/02/23 05:56:28;;;;;;;13.10;4.30;;;7.20;99.90;;;;;;5095353;28;20171;-87
2022/02/23 05:58:55;;;;;;;11.17;4.13;;;7.20;99.90;;;;;;5095395;28;20155;-87
2022/02/23 06:01:22;;;;;;;17.63;4.40;;;7.10;99.90;;;;;;5095241;28;20167;-87
2022/02/23 06:03:47;;;;;;;16.60;4.70;;;7.10;99.90;;;;;;5096207;28;20175;-87
2022/02/23 06:06:19;;;;;;;13.93;4.90;;;7.00;99.90;;;;;;5096220;28;20308;-88
2022/02/23 06:08:45;;;;;;;11.10;3.93;;;7.00;99.90;;;;;;5094567;28;20212;-86
2022/02/23 06:11:14;;;;;;;16.60;6.53;;;7.10;99.90;;;;;;5095047;28;20327;-87
2022/02/23 06:13:51;;;;;;;17.73;5.50;;;7.10;99.90;;;;;;5095961;28;20178;-88
2022/02/23 06:16:22;;;;;;;22.13;5.00;;;7.10;99.90;;;;;;5094964;28;20181;-87
2022/02/23 06:18:48;;;;;;;19.60;5.40;;;7.10;99.90;;;;;;5094817;28;20171;-88
2022/02/23 06:21:16;;;;;;;16.57;5.40;;;6.90;99.90;;;;;;5095087;28;20159;-87
2022/02/23 06:23:44;;;;;;;21.47;4.70;;;7.00;99.90;;;;;;5094854;28;20610;-88
2022/02/23 06:26:13;;;;;;;16.90;5.63;;;6.90;99.90;;;;;;5094668;28;20209;-88
2022/02/23 06:28:41;;;;;;;8.67;4.43;;;6.80;99.90;;;;;;5094683;28;20167;-87
2022/02/23 06:31:13;;;;;;;18.47;4.90;;;7.10;99.90;;;;;;5085872;28;20619;-87
2022/02/23 06:33:40;;;;;;;19.30;5.37;;;7.30;99.90;;;;;;5074354;28;20262;-87
2022/02/23 06:36:08;;;;;;;18.27;4.77;;;7.30;99.90;;;;;;5078144;28;20233;-86
2022/02/23 06:38:36;;;;;;;21.37;5.43;;;7.40;99.90;;;;;;5073634;28;20171;-87
2022/02/23 06:41:26;;;;;;;17.17;5.23;;;7.20;99.90;;;;;;5073784;28;20168;-94
2022/02/23 06:43:54;;;;;;;19.50;5.53;;;7.00;99.90;;;;;;5073617;28;20171;-85
2022/02/23 06:46:22;;;;;;;17.87;7.10;;;6.90;99.90;;;;;;5086191;28;20199;-86
2022/02/23 06:48:50;;;;;;;31.03;9.77;;;7.00;99.90;;;;;;5093822;28;20262;-85
2022/02/23 06:51:18;;;;;;;45.40;14.37;;;7.00;99.90;;;;;;5093144;28;20174;-86
2022/02/23 06:53:47;;;;;;;40.77;13.93;;;7.00;99.90;;;;;;5093670;28;20160;-86
2022/02/23 06:56:16;;;;;;;59.80;19.10;;;7.10;99.90;;;;;;5094013;28;20167;-86
2022/02/23 06:58:48;;;;;;;34.73;11.53;;;7.00;99.90;;;;;;5094002;28;20217;-86
2022/02/23 07:01:16;;;;;;;36.63;14.17;;;6.90;99.90;;;;;;5094619;28;20864;-86
2022/02/23 07:03:44;;;;;;;40.47;12.70;;;6.90;99.90;;;;;;5083894;28;20238;-86
2022/02/23 07:06:12;;;;;;;23.40;8.83;;;7.10;99.90;;;;;;5078880;28;20219;-86
2022/02/23 07:08:48;;;;;;;16.03;6.23;;;7.10;99.90;;;;;;5078049;28;20209;-86
2022/02/23 07:11:17;;;;;;;19.53;6.00;;;7.20;99.90;;;;;;5079941;28;20520;-86
2022/02/23 07:13:44;;;;;;;24.03;8.63;;;7.40;99.90;;;;;;5077851;28;20167;-86
2022/02/23 07:16:15;;;;;;;21.90;9.33;;;7.40;99.90;;;;;;5072939;28;20163;-86
2022/02/23 07:18:41;;;;;;;24.70;9.77;;;7.30;99.90;;;;;;5092288;28;20167;-86
2022/02/23 07:21:10;;;;;;;23.00;7.40;;;7.30;99.90;;;;;;5084442;28;20178;-86
2022/02/23 07:23:37;;;;;;;18.27;6.73;;;7.30;99.90;;;;;;5072700;28;20541;-86
2022/02/23 07:26:04;;;;;;;21.47;8.80;;;7.30;99.90;;;;;;5072680;28;20349;-87
2022/02/23 07:28:31;;;;;;;26.70;7.70;;;7.40;99.90;;;;;;5083765;28;20166;-87
2022/02/23 07:30:57;;;;;;;28.00;10.00;;;7.40;99.90;;;;;;5087986;28;20231;-86
2022/02/23 07:33:23;;;;;;;22.57;8.73;;;7.40;99.90;;;;;;5080548;28;20169;-86
2022/02/23 07:35:48;;;;;;;20.97;7.07;;;7.30;99.90;;;;;;5076532;28;20169;-87
2022/02/23 07:38:17;;;;;;;18.93;6.77;;;7.40;99.90;;;;;;5083675;28;20176;-87
2022/02/23 07:40:44;;;;;;;31.00;9.53;;;7.40;99.90;;;;;;5084335;28;20200;-86
2022/02/23 07:43:10;;;;;;;19.80;6.10;;;7.40;99.90;;;;;;5072937;28;20204;-87
2022/02/23 07:45:40;;;;;;;17.23;6.10;;;7.40;99.90;;;;;;5072502;28;20198;-86
2022/02/23 07:48:08;;;;;;;30.67;12.00;;;7.40;99.90;;;;;;5072738;28;20233;-85
2022/02/23 07:50:34;;;;;;;15.60;7.60;;;7.30;99.90;;;;;;5072059;28;20277;-86
2022/02/23 07:53:02;;;;;;;18.30;7.33;;;7.40;99.90;;;;;;5072666;28;20155;-87
2022/02/23 07:55:30;;;;;;;28.73;8.33;;;7.50;99.90;;;;;;5072873;28;20258;-87
2022/02/23 07:58:03;;;;;;;23.17;7.20;;;7.60;99.90;;;;;;5073052;28;20667;-87
2022/02/23 08:00:30;;;;;;;17.93;6.40;;;7.50;99.90;;;;;;5072928;28;20201;-86
2022/02/23 08:02:55;;;;;;;24.90;6.40;;;7.60;99.90;;;;;;5072879;28;20237;-86
2022/02/23 08:05:24;;;;;;;22.10;7.60;;;7.60;99.90;;;;;;5073620;28;20654;-86
2022/02/23 08:07:51;;;;;;;16.17;5.17;;;7.60;99.90;;;;;;5072755;28;20206;-87
2022/02/23 08:10:16;;;;;;;20.33;7.10;;;7.70;99.90;;;;;;5072736;28;20170;-86
2022/02/23 08:12:43;;;;;;;19.87;6.37;;;7.70;99.90;;;;;;5091639;28;20249;-86
2022/02/23 08:20:42;;;;;;;19.33;6.43;;;7.70;99.90;;;;;;5074103;28;20168;-86
2022/02/23 08:23:11;;;;;;;20.63;6.37;;;7.70;99.90;;;;;;5072715;28;20180;-86
2022/02/23 08:25:40;;;;;;;16.97;5.80;;;7.70;99.90;;;;;;5073019;28;20199;-94
2022/02/23 08:28:10;;;;;;;18.10;6.13;;;7.80;99.90;;;;;;5086778;28;20241;-96
2022/02/23 08:30:35;;;;;;;23.67;6.37;;;7.90;99.90;;;;;;5092814;28;20261;-94
2022/02/23 08:33:11;;;;;;;22.83;6.93;;;7.90;99.90;;;;;;5094083;28;20194;-96
2022/02/23 08:35:37;;;;;;;29.23;9.73;;;7.80;99.90;;;;;;5093114;28;20174;-94
2022/02/23 08:38:03;;;;;;;16.03;6.37;;;7.90;99.90;;;;;;5093987;28;20171;-96
2022/02/23 08:40:28;;;;;;;18.70;6.57;;;7.90;99.90;;;;;;5087340;28;20171;-94
2022/02/23 08:42:55;;;;;;;22.73;5.60;;;8.10;99.90;;;;;;5092676;28;20251;-93
2022/02/23 08:45:38;;;;;;;20.97;6.90;;;8.10;99.90;;;;;;5073555;28;20216;-95
2022/02/23 08:48:04;;;;;;;18.33;5.57;;;8.20;99.90;;;;;;5072342;28;20627;-95
2022/02/23 08:50:32;;;;;;;13.33;5.00;;;8.30;99.90;;;;;;5072371;28;20269;-93
2022/02/23 08:52:58;;;;;;;19.77;5.17;;;8.30;99.90;;;;;;5076212;28;20249;-93
2022/02/23 08:55:24;;;;;;;15.93;4.90;;;8.30;99.90;;;;;;5074944;28;20266;-96
2022/02/23 08:57:51;;;;;;;15.77;5.20;;;8.30;99.90;;;;;;5087771;28;20190;-92
2022/02/23 09:00:17;;;;;;;14.53;4.50;;;8.30;99.90;;;;;;5092456;28;20196;-96
2022/02/23 09:02:44;;;;;;;15.73;4.23;;;8.40;99.90;;;;;;5092572;28;20183;-96
2022/02/23 09:05:10;;;;;;;17.53;4.77;;;8.50;99.90;;;;;;5096311;28;20204;-96
2022/02/23 09:07:35;;;;;;;15.07;5.43;;;8.50;99.90;;;;;;5096242;28;20191;-94
2022/02/23 09:10:01;;;;;;;20.47;5.90;;;8.60;99.90;;;;;;5096427;28;20230;-95
2022/02/23 09:12:30;;;;;;;19.80;5.80;;;8.70;99.90;;;;;;5096667;28;20168;-94
2022/02/23 09:14:55;;;;;;;16.57;4.40;;;8.80;99.90;;;;;;5097084;28;20233;-95
2022/02/23 09:17:27;;;;;;;18.10;6.17;;;8.90;99.90;;;;;;5094610;28;20183;-96
2022/02/23 09:19:58;;;;;;;17.57;5.43;;;9.00;99.90;;;;;;5096126;28;20248;-96
2022/02/23 09:22:24;;;;;;;18.73;5.73;;;9.00;99.90;;;;;;5095958;28;20170;-96
2022/02/23 09:24:51;;;;;;;17.67;5.33;;;8.90;99.90;;;;;;5095837;28;20248;-96
2022/02/23 09:27:16;;;;;;;17.33;6.00;;;9.00;99.90;;;;;;5092144;28;20207;-95
2022/02/23 09:29:42;;;;;;;22.97;6.33;;;9.10;99.90;;;;;;5082483;28;20227;-96
2022/02/23 09:32:07;;;;;;;15.93;5.70;;;9.10;99.90;;;;;;5092860;28;20181;-94
2022/02/23 09:34:33;;;;;;;14.23;5.20;;;9.10;99.90;;;;;;5075247;28;20656;-96
2022/02/23 09:36:59;;;;;;;18.67;4.80;;;9.10;99.90;;;;;;5086895;28;20180;-96
2022/02/23 09:39:32;;;;;;;21.37;5.23;;;9.10;99.90;;;;;;5096367;28;20166;-92
2022/02/23 09:42:00;;;;;;;21.27;4.73;;;9.10;99.90;;;;;;5080076;28;20186;-94
2022/02/23 09:44:30;;;;;;;13.63;4.70;;;9.20;99.90;;;;;;5074857;28;20174;-93
2022/02/23 09:46:59;;;;;;;11.97;5.00;;;9.20;99.90;;;;;;5074512;28;20265;-94
2022/02/23 09:49:25;;;;;;;19.77;5.33;;;9.20;99.90;;;;;;5075018;28;20171;-95
2022/02/23 09:51:50;;;;;;;13.57;4.33;;;9.30;99.90;;;;;;5075283;28;20199;-94
2022/02/23 09:54:17;;;;;;;12.17;4.30;;;9.30;99.90;;;;;;5074819;28;20166;-95
2022/02/23 09:56:45;;;;;;;14.60;5.00;;;9.40;99.90;;;;;;5075052;28;20169;-95
2022/02/23 09:59:12;;;;;;;19.13;4.90;;;9.50;99.90;;;;;;5074662;28;20177;-94
2022/02/23 10:01:40;;;;;;;22.43;4.73;;;9.60;99.90;;;;;;5074282;28;20167;-93
2022/02/23 10:04:07;;;;;;;13.07;3.70;;;9.80;99.90;;;;;;5074588;28;20275;-95
2022/02/23 10:06:36;;;;;;;12.17;3.93;;;9.90;99.90;;;;;;5074335;28;20197;-94
2022/02/23 10:09:05;;;;;;;18.47;5.17;;;9.90;99.90;;;;;;5074778;28;20221;-95
2022/02/23 10:11:31;;;;;;;17.53;3.83;;;10.00;99.90;;;;;;5074823;28;20264;-95
2022/02/23 10:13:58;;;;;;;20.20;4.13;;;10.00;99.90;;;;;;5073655;28;20171;-95
2022/02/23 10:16:33;;;;;;;10.73;3.03;;;10.00;99.90;;;;;;5074198;28;20173;-96
2022/02/23 10:19:13;;;;;;;15.57;3.10;;;10.00;99.90;;;;;;5074388;28;20282;-96
2022/02/23 10:22:00;;;;;;;14.93;3.70;;;10.00;99.90;;;;;;5074223;28;20568;-95
2022/02/23 10:24:27;;;;;;;15.20;3.40;;;10.10;99.90;;;;;;5075105;28;20185;-94
2022/02/23 10:26:54;;;;;;;13.70;3.27;;;10.10;99.90;;;;;;5074369;28;20176;-95
2022/02/23 10:29:35;;;;;;;17.73;3.30;;;10.10;99.90;;;;;;5074198;28;20174;-95
2022/02/23 10:32:05;;;;;;;16.30;3.50;;;10.10;99.90;;;;;;5074142;28;20260;-94
2022/02/23 10:34:37;;;;;;;17.00;3.20;;;10.10;99.90;;;;;;5074374;28;20182;-94
2022/02/23 10:37:06;;;;;;;15.17;3.80;;;10.20;99.90;;;;;;5074713;28;20187;-95
2022/02/23 10:40:00;;;;;;;12.70;3.23;;;10.30;99.90;;;;;;5074064;28;20163;-95
2022/02/23 10:42:33;;;;;;;18.17;3.20;;;10.40;99.90;;;;;;5073757;28;20213;-94
2022/02/23 10:45:00;;;;;;;11.93;2.80;;;10.40;99.90;;;;;;5073501;28;20690;-95
2022/02/23 10:47:46;;;;;;;13.50;3.13;;;10.40;99.90;;;;;;5073808;28;20179;-94
2022/02/23 10:50:25;;;;;;;14.67;3.60;;;10.60;99.90;;;;;;5073694;28;20177;-94
2022/02/23 10:52:55;;;;;;;15.63;3.43;;;10.70;99.90;;;;;;5073543;28;20173;-94
2022/02/23 10:55:26;;;;;;;11.80;2.17;;;10.80;99.90;;;;;;5073655;28;20174;-94
2022/02/23 10:58:05;;;;;;;12.93;3.23;;;10.80;99.90;;;;;;5073209;28;20173;-94
2022/02/23 11:00:31;;;;;;;11.50;2.63;;;11.10;99.90;;;;;;5073431;28;20171;-94
2022/02/23 11:02:57;;;;;;;12.37;2.43;;;11.50;99.90;;;;;;5073833;28;20332;-94
2022/02/23 11:05:24;;;;;;;9.67;2.50;;;12.30;99.90;;;;;;5073574;28;20203;-94
2022/02/23 11:07:52;;;;;;;8.40;1.90;;;13.10;99.90;;;;;;5073956;28;20196;-92
2022/02/23 11:10:18;;;;;;;11.07;1.87;;;13.80;99.90;;;;;;5073229;28;20179;-95
2022/02/23 11:12:49;;;;;;;11.67;2.60;;;14.40;99.10;;;;;;5073227;28;20194;-94
2022/02/23 11:15:19;;;;;;;11.27;1.70;;;15.40;98.50;;;;;;5073710;28;20258;-94
2022/02/23 11:17:47;;;;;;;8.93;2.13;;;16.20;96.30;;;;;;5073073;28;20707;-93
2022/02/23 11:20:21;;;;;;;8.53;1.90;;;17.10;94.40;;;;;;5073860;28;20204;-94
2022/02/23 11:22:58;;;;;;;8.23;2.03;;;17.60;92.50;;;;;;5073890;28;20198;-93
2022/02/23 11:25:25;;;;;;;7.37;1.73;;;18.00;91.60;;;;;;5072680;28;20205;-94
2022/02/23 11:27:58;;;;;;;5.40;1.60;;;17.60;90.80;;;;;;5072701;28;20589;-93
2022/02/23 11:30:28;;;;;;;10.17;2.10;;;17.60;90.90;;;;;;5072877;28;20168;-94
2022/02/23 11:32:55;;;;;;;8.17;1.90;;;17.60;90.40;;;;;;5073213;28;20644;-95
2022/02/23 11:35:40;;;;;;;7.63;1.83;;;17.70;90.60;;;;;;5073025;28;20176;-94
2022/02/23 11:38:07;;;;;;;9.37;1.67;;;17.90;90.00;;;;;;5072832;28;20170;-95
2022/02/23 11:40:50;;;;;;;4.77;1.27;;;18.40;88.90;;;;;;5073398;28;20169;-94
2022/02/23 11:43:38;;;;;;;8.07;1.80;;;18.70;87.50;;;;;;5072962;28;20170;-94
2022/02/23 11:46:07;;;;;;;7.07;1.37;;;18.80;86.10;;;;;;5073090;28;20647;-94
2022/02/23 11:49:02;;;;;;;7.97;1.80;;;18.80;84.60;;;;;;5072506;28;20658;-94
2022/02/23 11:51:36;;;;;;;6.33;1.77;;;18.60;83.80;;;;;;5072542;28;20178;-94
2022/02/23 11:54:03;;;;;;;7.10;1.70;;;18.70;84.60;;;;;;5072647;28;20177;-95
2022/02/23 11:56:46;;;;;;;7.37;1.87;;;18.90;82.90;;;;;;5072472;28;20174;-94
2022/02/23 11:59:44;;;;;;;7.33;1.73;;;18.80;83.50;;;;;;5072602;28;20175;-95
2022/02/23 12:02:11;;;;;;;9.00;1.50;;;19.30;83.40;;;;;;5072671;28;20177;-94
2022/02/23 12:04:56;;;;;;;6.93;1.97;;;19.80;81.90;;;;;;5072418;28;20696;-95
2022/02/23 12:07:22;;;;;;;7.77;2.37;;;20.40;80.80;;;;;;5072378;28;20167;-92
2022/02/23 12:09:59;;;;;;;7.93;2.03;;;20.90;79.50;;;;;;5071819;28;20189;-94
2022/02/23 12:12:48;;;;;;;9.70;2.37;;;20.60;79.70;;;;;;5072436;28;20182;-92
2022/02/23 12:15:44;;;;;;;7.80;1.93;;;21.20;78.90;;;;;;5062339;28;20186;-95
2022/02/23 12:18:17;;;;;;;7.43;1.87;;;20.90;78.40;;;;;;5055273;28;20198;-95
2022/02/23 12:20:47;;;;;;;5.90;1.43;;;21.00;78.20;;;;;;5072133;28;20168;-94
2022/02/23 12:23:18;;;;;;;5.93;1.23;;;21.40;76.20;;;;;;5072452;28;20249;-94
2022/02/23 12:25:46;;;;;;;6.53;1.37;;;21.60;74.10;;;;;;5071830;28;20215;-94
2022/02/23 12:28:13;;;;;;;4.27;1.23;;;21.20;75.20;;;;;;5073761;28;20262;-95
2022/02/23 12:31:04;;;;;;;4.27;1.23;;;20.00;73.80;;;;;;5073764;28;20180;-95
2022/02/23 12:33:35;;;;;;;6.83;1.90;;;19.90;74.70;;;;;;5062372;28;20183;-93
2022/02/23 12:36:06;;;;;;;7.93;2.60;;;20.40;74.80;;;;;;5072059;28;20171;-95
2022/02/23 12:38:34;;;;;;;10.13;2.07;;;21.30;74.60;;;;;;5075642;28;20179;-93
2022/02/23 12:41:03;;;;;;;6.67;1.77;;;21.20;75.60;;;;;;5077216;28;20183;-93
2022/02/23 12:43:29;;;;;;;6.53;1.83;;;21.40;75.70;;;;;;5076187;28;20178;-92
2022/02/23 12:45:58;;;;;;;5.97;1.93;;;20.80;76.90;;;;;;5077444;28;20215;-95
2022/02/23 12:48:33;;;;;;;7.87;2.30;;;20.30;78.90;;;;;;5076175;28;20180;-92
2022/02/23 12:51:07;;;;;;;8.60;4.10;;;20.10;78.90;;;;;;5076080;28;20193;-93
2022/02/23 12:53:42;;;;;;;15.73;6.27;;;20.90;77.80;;;;;;5075787;28;20484;-92
2022/02/23 12:56:22;;;;;;;10.67;5.43;;;21.80;76.40;;;;;;5075704;28;20531;-94
2022/02/23 12:58:51;;;;;;;15.73;7.00;;;22.40;74.00;;;;;;5075832;28;20202;-94
2022/02/23 13:01:31;;;;;;;12.40;5.47;;;21.50;73.60;;;;;;5075833;28;20170;-95
2022/02/23 13:04:05;;;;;;;10.93;4.07;;;21.70;74.10;;;;;;5075546;28;20531;-95